CHX12 EDDN-EDDN

Flight info

Callsign CHX12
Flight time 0h 0m
Altitude
Route
Aircraft H144

Departure

Time 2026-04-27 16:44
Airport Nuremberg Airport (EDDN)

Arrival

Time 2026-04-27 16:44
Airport Nuremberg Airport (EDDN)
Time Latitude Longitude Altitude Speed Heading
2026-04-27 16:29 49.49571 11.07266 1023 ft 0 kts
2026-04-27 16:32 49.49621 11.07351 1033 ft 13 kts 84°
2026-04-27 16:32 49.49612 11.07473 1036 ft 8 kts 98°
2026-04-27 16:33 49.49596 11.07656 1041 ft 11 kts 96°
2026-04-27 16:33 49.49599 11.07754 1043 ft 7 kts 48°
2026-04-27 16:33 49.49638 11.07776 1047 ft 7 kts 357°
2026-04-27 16:33 49.49707 11.07726 1043 ft 8 kts 339°
2026-04-27 16:34 49.49729 11.07719 1037 ft 1 kts 338°
2026-04-27 16:34 49.49731 11.07714 1036 ft 2 kts 340°
2026-04-27 16:34 49.49745 11.07704 1036 ft 3 kts 340°
2026-04-27 16:34 49.49821 11.07651 1048 ft 26 kts 336°
2026-04-27 16:35 49.49910 11.07247 1152 ft 59 kts 286°
2026-04-27 16:35 49.50012 11.06487 1205 ft 86 kts 279°
2026-04-27 16:35 49.50193 11.04599 1437 ft 83 kts 285°
2026-04-27 16:36 49.49798 11.04018 1372 ft 103 kts 174°
2026-04-27 16:36 49.49388 11.04824 1399 ft 96 kts 99°
2026-04-27 16:36 49.49245 11.05795 1552 ft 93 kts 100°
2026-04-27 16:36 49.49099 11.06779 1585 ft 96 kts 95°
2026-04-27 16:37 49.49002 11.07790 1597 ft 98 kts 91°
2026-04-27 16:37 49.48869 11.08840 1616 ft 102 kts 99°
2026-04-27 16:37 49.48665 11.09900 1632 ft 104 kts 103°
2026-04-27 16:37 49.48525 11.10974 1617 ft 100 kts 76°
2026-04-27 16:38 49.48996 11.11547 1462 ft 93 kts 354°
2026-04-27 16:38 49.49508 11.11210 1350 ft 73 kts 314°
2026-04-27 16:38 49.49609 11.10399 1229 ft 86 kts 283°
2026-04-27 16:38 49.49731 11.09235 1095 ft 122 kts 277°
2026-04-27 16:39 49.49841 11.08045 1123 ft 102 kts 281°
2026-04-27 16:39 49.49959 11.07009 1125 ft 95 kts 279°
2026-04-27 16:39 49.50052 11.06029 1167 ft 90 kts 279°
2026-04-27 16:39 49.50113 11.05091 1234 ft 87 kts 278°
2026-04-27 16:40 49.50049 11.04181 1310 ft 96 kts 243°
2026-04-27 16:40 49.49397 11.03903 1272 ft 108 kts 163°
2026-04-27 16:40 49.48934 11.04730 1287 ft 104 kts 99°
2026-04-27 16:40 49.48857 11.05816 1366 ft 101 kts 91°
2026-04-27 16:41 49.48762 11.06870 1501 ft 98 kts 93°
2026-04-27 16:41 49.48659 11.07921 1532 ft 103 kts 91°
2026-04-27 16:41 49.48581 11.09058 1565 ft 110 kts 90°
2026-04-27 16:41 49.48808 11.10124 1376 ft 120 kts 28°
2026-04-27 16:42 49.49526 11.10089 1226 ft 103 kts 309°
2026-04-27 16:42 49.49743 11.09031 1124 ft 107 kts 282°
2026-04-27 16:42 49.49866 11.07857 1106 ft 114 kts 278°
2026-04-27 16:42 49.49982 11.06710 1174 ft 101 kts 281°
2026-04-27 16:43 49.50078 11.05667 1264 ft 104 kts 280°
2026-04-27 16:43 49.50160 11.04504 1289 ft 98 kts 256°
2026-04-27 16:43 49.49638 11.04308 1515 ft 93 kts 150°
2026-04-27 16:43 49.49227 11.05077 1511 ft 96 kts 109°
2026-04-27 16:44 49.49068 11.05880 1694 ft 61 kts 97°
2026-04-27 16:44 49.49043 11.06371 1847 ft 32 kts 90°
2026-04-27 16:44 49.49062 11.06553 1890 ft 4 kts 92°
2026-04-27 16:44 49.49064 11.06551 1887 ft 0 kts 96°
2026-04-27 16:45 49.49063 11.06551 1885 ft 0 kts 95°
2026-04-27 16:46 49.49063 11.06552 1883 ft 0 kts 95°
2026-04-27 16:46 49.49065 11.06560 1882 ft 4 kts 96°
2026-04-27 16:47 49.49047 11.06810 1790 ft 57 kts 86°
2026-04-27 16:47 49.48959 11.07713 1544 ft 109 kts 89°
2026-04-27 16:47 49.48858 11.08994 1318 ft 116 kts 84°
2026-04-27 16:47 49.48852 11.10159 1286 ft 101 kts 72°
2026-04-27 16:48 49.49169 11.10997 1273 ft 88 kts 27°
2026-04-27 16:48 49.49622 11.10601 1150 ft 97 kts 274°
2026-04-27 16:48 49.49694 11.09578 1104 ft 98 kts 276°
2026-04-27 16:49 49.49900 11.07488 1079 ft 104 kts 279°
2026-04-27 16:49 49.50040 11.06363 1063 ft 110 kts 277°
2026-04-27 16:49 49.50264 11.05418 1307 ft 86 kts 314°
2026-04-27 16:49 49.50782 11.05409 1517 ft 80 kts 26°
2026-04-27 16:50 49.50993 11.06136 1812 ft 67 kts 65°
2026-04-27 16:50 49.51081 11.06729 2043 ft 58 kts 60°
2026-04-27 16:50 49.51299 11.07515 1819 ft 99 kts 54°
2026-04-27 16:50 49.51655 11.08458 1738 ft 101 kts 49°
2026-04-27 16:51 49.52051 11.09339 1732 ft 99 kts 45°
2026-04-27 16:51 49.52466 11.10157 1768 ft 93 kts 44°
2026-04-27 16:51 49.52867 11.10905 1808 ft 88 kts 44°
2026-04-27 16:51 49.53229 11.11635 1817 ft 84 kts 50°
2026-04-27 16:52 49.53496 11.12401 1854 ft 79 kts 54°
2026-04-27 16:52 49.53729 11.13143 1874 ft 75 kts 56°
2026-04-27 16:52 49.53942 11.13855 1960 ft 72 kts 55°
2026-04-27 16:52 49.54141 11.14545 2014 ft 69 kts 57°
2026-04-27 16:53 49.54327 11.15218 2099 ft 68 kts 56°
2026-04-27 16:53 49.54501 11.15893 2226 ft 69 kts 57°
2026-04-27 16:53 49.54722 11.16615 2172 ft 80 kts 52°
2026-04-27 16:53 49.55001 11.17408 2115 ft 88 kts 53°
2026-04-27 16:54 49.55397 11.18152 2069 ft 93 kts 32°
2026-04-27 16:54 49.55750 11.18544 2037 ft 97 kts 32°
2026-04-27 16:54 49.56528 11.19329 2051 ft 104 kts 30°
2026-04-27 16:54 49.57151 11.19953 2046 ft 109 kts 30°
2026-04-27 16:55 49.57798 11.20594 2044 ft 112 kts 30°
2026-04-27 16:55 49.58248 11.21040 2046 ft 114 kts 30°
2026-04-27 16:55 49.58916 11.21708 2048 ft 117 kts 30°
2026-04-27 16:55 49.59596 11.22394 2035 ft 114 kts 31°
2026-04-27 16:56 49.60128 11.22934 1909 ft 16 kts 327°
2026-04-27 16:56 49.60138 11.23017 1724 ft 17 kts 310°
2026-04-27 16:56 49.60229 11.22837 2213 ft 31 kts 300°
2026-04-27 16:56 49.60265 11.22547 2544 ft 24 kts 270°
2026-04-27 16:57 49.60205 11.22401 2473 ft 6 kts 309°
2026-04-27 16:57 49.60198 11.22364 2398 ft 10 kts 357°
2026-04-27 16:57 49.60325 11.22217 2343 ft 34 kts 338°
2026-04-27 16:57 49.60608 11.22013 2273 ft 56 kts 333°
2026-04-27 16:58 49.61031 11.21742 2105 ft 76 kts 334°
2026-04-27 16:58 49.61569 11.21471 1856 ft 87 kts 355°
2026-04-27 16:58 49.62026 11.22100 1581 ft 101 kts 65°
2026-04-27 16:58 49.61796 11.23100 1341 ft 106 kts 132°
2026-04-27 16:59 49.61258 11.23903 1406 ft 111 kts 111°
2026-04-27 16:59 49.60787 11.24796 1490 ft 104 kts 109°
2026-04-27 16:59 49.60508 11.25739 1638 ft 94 kts 85°
2026-04-27 16:59 49.60335 11.26838 1895 ft 103 kts 87°
2026-04-27 17:00 49.60455 11.28084 1898 ft 11 kts 57°
2026-04-27 17:00 49.60454 11.28137 1808 ft 7 kts 76°
2026-04-27 17:00 49.60428 11.28181 1804 ft 4 kts 143°
2026-04-27 17:01 49.60416 11.28207 1806 ft 1 kts 168°
2026-04-27 17:01 49.60416 11.28208 1792 ft 0 kts 162°